createdAt,value
2023-06-07T00:01:58.660Z,20.40
2023-06-07T00:04:25.550Z,20.40
2023-06-07T00:06:57.920Z,20.40
2023-06-07T00:09:24.764Z,20.40
2023-06-07T00:11:51.522Z,20.40
2023-06-07T00:14:18.253Z,20.40
2023-06-07T00:16:46.180Z,20.50
2023-06-07T00:19:13.716Z,20.40
2023-06-07T00:21:40.438Z,20.40
2023-06-07T00:24:07.412Z,20.40
2023-06-07T00:26:34.445Z,20.30
2023-06-07T00:29:01.146Z,20.30
2023-06-07T00:31:27.935Z,20.30
2023-06-07T00:33:54.814Z,20.30
2023-06-07T00:36:21.604Z,20.30
2023-06-07T00:38:48.418Z,20.40
2023-06-07T00:41:15.140Z,20.40
2023-06-07T00:43:41.823Z,20.40
2023-06-07T00:46:08.657Z,20.30
2023-06-07T00:48:36.140Z,20.30
2023-06-07T00:51:03.356Z,20.30
2023-06-07T00:53:30.858Z,20.30
2023-06-07T00:55:58.448Z,20.40
2023-06-07T00:58:26.971Z,20.30
2023-06-07T01:00:55.584Z,20.30
2023-06-07T01:03:23.304Z,20.30
2023-06-07T01:05:51.441Z,20.20
2023-06-07T01:08:18.850Z,20.30
2023-06-07T01:10:46.069Z,20.30
2023-06-07T01:13:14.689Z,20.20
2023-06-07T01:15:42.388Z,20.20
2023-06-07T01:18:11.224Z,20.20
2023-06-07T01:20:40.338Z,20.20
2023-06-07T01:23:10.302Z,20.20
2023-06-07T01:25:37.146Z,20.20
2023-06-07T01:28:05.183Z,20.20
2023-06-07T01:30:32.910Z,20.20
2023-06-07T01:33:06.224Z,20.20
2023-06-07T01:35:34.976Z,20.20
2023-06-07T01:38:02.030Z,20.20
2023-06-07T01:40:29.995Z,20.10
2023-06-07T01:42:57.690Z,20.10
2023-06-07T01:45:24.633Z,20.10
2023-06-07T01:47:54.647Z,20.00
2023-06-07T01:50:22.734Z,19.90
2023-06-07T01:52:49.850Z,19.90
2023-06-07T01:55:17.600Z,20.00
2023-06-07T01:58:03.094Z,19.90
2023-06-07T02:00:49.235Z,19.90
2023-06-07T02:03:20.326Z,19.90
2023-06-07T02:05:51.073Z,19.90
2023-06-07T02:08:36.992Z,20.00
2023-06-07T02:11:04.666Z,19.90
2023-06-07T02:13:35.781Z,19.90
2023-06-07T02:16:06.383Z,19.90
2023-06-07T02:18:41.794Z,19.90
2023-06-07T02:21:09.629Z,19.90
2023-06-07T02:23:36.994Z,19.90
2023-06-07T02:26:04.331Z,19.90
2023-06-07T02:28:32.022Z,19.90
2023-06-07T02:30:59.026Z,19.90
2023-06-07T02:33:26.325Z,19.90
2023-06-07T02:35:53.293Z,19.80
2023-06-07T02:38:20.187Z,19.80
2023-06-07T02:40:46.952Z,19.80
2023-06-07T02:43:15.237Z,19.80
2023-06-07T02:45:42.149Z,19.80
2023-06-07T02:48:09.014Z,19.80
2023-06-07T02:50:36.034Z,19.80
2023-06-07T02:53:03.588Z,19.80
2023-06-07T02:55:30.399Z,19.80
2023-06-07T02:57:57.191Z,19.80
2023-06-07T03:00:24.471Z,19.80
2023-06-07T03:02:51.564Z,19.70
2023-06-07T03:05:18.405Z,19.70
2023-06-07T03:07:47.341Z,19.70
2023-06-07T03:10:14.263Z,19.70
2023-06-07T03:12:41.116Z,19.70
2023-06-07T03:15:09.263Z,19.70
2023-06-07T03:17:37.170Z,19.80
2023-06-07T03:20:08.635Z,19.80
2023-06-07T03:22:39.756Z,19.80
2023-06-07T03:25:07.918Z,19.80
2023-06-07T03:27:36.213Z,19.80
2023-06-07T03:30:05.049Z,19.90
2023-06-07T03:32:32.085Z,19.90
2023-06-07T03:34:58.941Z,20.00
2023-06-07T03:37:25.716Z,20.00
2023-06-07T03:39:52.642Z,20.00
2023-06-07T03:42:19.484Z,20.00
2023-06-07T03:44:46.255Z,20.00
2023-06-07T03:47:13.048Z,20.00
2023-06-07T03:49:39.976Z,20.00
2023-06-07T03:52:07.784Z,20.00
2023-06-07T03:54:34.900Z,20.00
2023-06-07T03:57:01.681Z,20.10
2023-06-07T03:59:28.749Z,20.10
2023-06-07T04:01:58.292Z,20.10
2023-06-07T04:04:28.942Z,20.20
2023-06-07T04:06:56.248Z,20.10
2023-06-07T04:09:23.114Z,20.20
2023-06-07T04:11:50.554Z,20.20
2023-06-07T04:14:17.724Z,20.20
2023-06-07T04:16:44.842Z,20.30
2023-06-07T04:19:11.673Z,20.30
2023-06-07T04:21:39.646Z,20.40
2023-06-07T04:24:07.030Z,20.40
2023-06-07T04:26:34.936Z,20.40
2023-06-07T04:29:01.730Z,20.40
2023-06-07T04:31:30.699Z,20.50
2023-06-07T04:33:59.096Z,20.50
2023-06-07T04:36:32.283Z,20.60
2023-06-07T04:39:02.208Z,20.60
2023-06-07T04:41:34.152Z,20.70
2023-06-07T04:44:08.482Z,20.70
2023-06-07T04:46:35.961Z,20.70
2023-06-07T04:49:03.084Z,20.80
2023-06-07T04:51:31.122Z,20.80
2023-06-07T04:54:02.818Z,20.80
2023-06-07T04:56:29.886Z,20.80
2023-06-07T04:58:57.812Z,20.80
2023-06-07T05:01:25.616Z,20.80
2023-06-07T05:04:00.444Z,20.80
2023-06-07T05:06:29.782Z,20.80
2023-06-07T05:08:57.091Z,20.80
2023-06-07T05:11:23.926Z,20.80
2023-06-07T05:13:50.890Z,20.80
2023-06-07T05:16:18.088Z,20.80
2023-06-07T05:18:49.905Z,20.80
2023-06-07T05:21:17.410Z,20.80
2023-06-07T05:23:45.248Z,20.80
2023-06-07T05:26:12.528Z,20.90
2023-06-07T05:28:39.438Z,20.90
2023-06-07T05:31:06.721Z,20.90
2023-06-07T05:33:34.572Z,21.00
2023-06-07T05:36:01.408Z,21.00
2023-06-07T05:38:28.261Z,21.00
2023-06-07T05:40:58.254Z,21.00
2023-06-07T05:43:25.084Z,21.10
2023-06-07T05:45:51.971Z,21.20
2023-06-07T05:48:19.191Z,21.30
2023-06-07T05:50:46.054Z,21.30
2023-06-07T05:53:13.180Z,21.30
2023-06-07T05:55:40.001Z,21.50
2023-06-07T05:58:06.827Z,21.50
2023-06-07T06:00:34.686Z,21.60
2023-06-07T06:03:05.615Z,21.60
2023-06-07T06:05:32.529Z,21.60
2023-06-07T06:07:59.943Z,21.70
2023-06-07T06:10:27.425Z,21.70
2023-06-07T06:12:54.326Z,21.70
2023-06-07T06:15:21.320Z,21.70
2023-06-07T06:17:50.922Z,21.80
2023-06-07T06:20:18.104Z,21.80
2023-06-07T06:22:45.108Z,21.90
2023-06-07T06:25:13.439Z,22.00
2023-06-07T06:27:40.881Z,22.00
2023-06-07T06:30:09.717Z,22.10
2023-06-07T06:32:37.098Z,22.20
2023-06-07T06:35:04.521Z,22.20
2023-06-07T06:37:31.486Z,22.20
2023-06-07T06:39:58.338Z,22.30
2023-06-07T06:42:25.182Z,22.40
2023-06-07T06:44:52.066Z,22.40
2023-06-07T06:47:19.177Z,22.50
2023-06-07T06:49:46.169Z,22.50
2023-06-07T06:52:12.931Z,22.50
2023-06-07T06:54:39.925Z,22.60
2023-06-07T06:57:07.129Z,22.70
2023-06-07T06:59:33.970Z,22.70
2023-06-07T07:02:01.205Z,22.70
2023-06-07T07:04:28.271Z,22.70
2023-06-07T07:06:55.258Z,22.70
2023-06-07T07:09:22.217Z,22.70
2023-06-07T07:11:48.983Z,22.80
2023-06-07T07:14:15.766Z,22.80
2023-06-07T07:16:42.581Z,22.80
2023-06-07T07:19:09.426Z,22.80
2023-06-07T07:21:36.851Z,22.90
2023-06-07T07:24:03.977Z,23.00
2023-06-07T07:26:31.158Z,23.10
2023-06-07T07:28:58.519Z,23.10
2023-06-07T07:31:25.553Z,23.10
2023-06-07T07:33:52.592Z,23.20
2023-06-07T07:36:22.728Z,23.30
2023-06-07T07:38:50.231Z,23.40
2023-06-07T07:41:17.041Z,23.50
2023-06-07T07:43:44.012Z,23.50
2023-06-07T07:46:11.201Z,23.60
2023-06-07T07:48:38.038Z,23.60
2023-06-07T07:51:05.148Z,23.80
2023-06-07T07:53:32.622Z,23.80
2023-06-07T07:55:59.399Z,23.90
2023-06-07T07:58:28.911Z,23.90
2023-06-07T08:00:55.735Z,23.90
2023-06-07T08:03:22.915Z,24.00
2023-06-07T08:05:49.912Z,24.00
2023-06-07T08:08:18.298Z,24.10
2023-06-07T08:10:46.605Z,24.20
2023-06-07T08:13:14.220Z,24.30
2023-06-07T08:15:41.661Z,24.30
2023-06-07T08:18:08.617Z,24.50
2023-06-07T08:20:37.265Z,24.60
2023-06-07T08:23:04.529Z,24.70
2023-06-07T08:25:31.440Z,24.80
2023-06-07T08:27:58.318Z,24.90
2023-06-07T08:30:25.363Z,25.00
2023-06-07T08:32:52.244Z,25.10
2023-06-07T08:35:19.053Z,25.20
2023-06-07T08:37:46.072Z,25.20
2023-06-07T08:40:13.458Z,25.40
2023-06-07T08:42:40.983Z,25.40
2023-06-07T08:45:08.267Z,25.60
2023-06-07T08:47:37.086Z,25.70
2023-06-07T08:50:04.758Z,25.70
2023-06-07T08:52:32.540Z,25.80
2023-06-07T08:55:05.216Z,25.90
2023-06-07T08:57:32.573Z,25.90
2023-06-07T09:00:01.671Z,26.00
2023-06-07T09:02:28.594Z,26.10
2023-06-07T09:04:55.384Z,26.20
2023-06-07T09:07:22.397Z,26.30
2023-06-07T09:09:49.320Z,26.40
2023-06-07T09:12:16.193Z,26.50
2023-06-07T09:14:43.374Z,26.50
2023-06-07T09:17:10.403Z,26.50
2023-06-07T09:19:42.658Z,26.60
2023-06-07T09:22:13.979Z,26.60
2023-06-07T09:24:41.733Z,26.70
2023-06-07T09:27:12.081Z,26.80
2023-06-07T09:29:40.912Z,27.00
2023-06-07T09:32:21.257Z,27.10
2023-06-07T09:35:01.882Z,27.30
2023-06-07T09:37:45.290Z,27.40
2023-06-07T09:40:14.810Z,27.60
2023-06-07T09:42:41.972Z,27.70
2023-06-07T09:45:18.936Z,27.80
2023-06-07T09:47:46.473Z,27.90
2023-06-07T09:50:14.792Z,28.00
2023-06-07T09:52:41.720Z,28.30
2023-06-07T09:55:10.080Z,28.40
2023-06-07T09:57:39.051Z,28.60
2023-06-07T10:00:09.893Z,28.70
2023-06-07T10:02:36.901Z,28.90
2023-06-07T10:05:03.978Z,29.10
2023-06-07T10:07:46.567Z,29.20
2023-06-07T10:10:16.241Z,29.20
2023-06-07T10:12:45.597Z,29.40
2023-06-07T10:15:16.779Z,29.50
2023-06-07T10:17:54.309Z,29.60
2023-06-07T10:20:35.002Z,29.80
2023-06-07T10:23:05.395Z,29.90
2023-06-07T10:25:39.137Z,30.00
2023-06-07T10:28:15.113Z,30.00
2023-06-07T10:30:52.000Z,30.10
2023-06-07T10:33:19.755Z,30.20
2023-06-07T10:35:47.465Z,30.40
2023-06-07T10:38:15.377Z,30.50
2023-06-07T10:40:43.014Z,30.70
2023-06-07T10:43:10.013Z,30.70
2023-06-07T10:45:36.832Z,30.70
2023-06-07T10:48:34.047Z,30.70
2023-06-07T10:51:01.009Z,30.70
2023-06-07T10:53:55.892Z,30.70
2023-06-07T10:56:32.641Z,30.60
2023-06-07T10:59:23.565Z,30.50
2023-06-07T11:01:52.185Z,30.30
2023-06-07T11:04:32.036Z,30.10
2023-06-07T11:07:25.357Z,30.00
2023-06-07T11:10:01.382Z,29.80
2023-06-07T11:12:42.261Z,29.60
2023-06-07T11:15:19.208Z,29.40
2023-06-07T11:17:57.375Z,29.20
2023-06-07T11:20:37.379Z,29.10
2023-06-07T11:23:27.718Z,28.90
2023-06-07T11:26:12.190Z,28.70
2023-06-07T11:28:41.117Z,28.60
2023-06-07T11:31:14.700Z,28.40
2023-06-07T11:33:42.319Z,28.30
2023-06-07T11:36:10.788Z,28.10
2023-06-07T11:38:39.902Z,27.90
2023-06-07T11:41:09.936Z,27.80
2023-06-07T11:43:37.705Z,27.60
2023-06-07T11:46:04.580Z,27.50
2023-06-07T11:48:32.221Z,27.40
2023-06-07T11:51:02.472Z,27.40
2023-06-07T11:53:30.541Z,27.30
2023-06-07T11:55:59.086Z,27.30
2023-06-07T11:58:26.870Z,27.20
2023-06-07T12:00:53.819Z,27.20
2023-06-07T12:03:24.435Z,27.30
2023-06-07T12:05:52.273Z,27.30
2023-06-07T12:08:19.682Z,27.30
2023-06-07T12:10:55.090Z,27.30
2023-06-07T12:13:23.113Z,27.40
2023-06-07T12:15:54.808Z,27.40
2023-06-07T12:18:26.884Z,27.50
2023-06-07T12:21:09.671Z,27.50
2023-06-07T12:23:38.006Z,27.50
2023-06-07T12:26:12.636Z,27.60
2023-06-07T12:28:41.817Z,27.70
2023-06-07T12:31:25.652Z,27.70
2023-06-07T12:34:04.478Z,27.70
2023-06-07T12:36:34.635Z,27.80
2023-06-07T12:39:12.649Z,27.80
2023-06-07T12:41:41.342Z,27.80
2023-06-07T12:44:10.855Z,27.90
2023-06-07T12:46:38.238Z,28.10
2023-06-07T12:49:05.779Z,28.10
2023-06-07T12:51:34.760Z,28.20
2023-06-07T12:54:02.137Z,28.30
2023-06-07T12:56:29.962Z,28.40
2023-06-07T12:58:57.933Z,28.50
2023-06-07T13:01:25.285Z,28.60
2023-06-07T13:03:52.593Z,28.60
2023-06-07T13:06:20.629Z,28.70
2023-06-07T13:08:47.676Z,28.80
2023-06-07T13:11:14.521Z,28.80
2023-06-07T13:13:41.400Z,28.70
2023-06-07T13:16:09.494Z,28.70
2023-06-07T13:18:40.783Z,28.80
2023-06-07T13:21:08.600Z,28.80
2023-06-07T13:23:35.755Z,28.80
2023-06-07T13:26:03.166Z,28.80
2023-06-07T13:28:30.142Z,28.80
2023-06-07T13:30:57.106Z,28.80
2023-06-07T13:33:23.976Z,28.80
2023-06-07T13:35:51.358Z,28.80
2023-06-07T13:38:18.250Z,28.80
2023-06-07T13:40:45.360Z,28.70
2023-06-07T13:43:12.185Z,28.70
2023-06-07T13:45:41.637Z,28.60
2023-06-07T13:48:10.622Z,28.60
2023-06-07T13:50:38.072Z,28.60
2023-06-07T13:53:05.338Z,28.60
2023-06-07T13:55:32.179Z,28.60
2023-06-07T13:57:59.067Z,28.50
2023-06-07T14:00:25.879Z,28.50
2023-06-07T14:02:52.846Z,28.40
2023-06-07T14:05:19.731Z,28.30
2023-06-07T14:07:46.570Z,28.20
2023-06-07T14:10:13.719Z,28.10
2023-06-07T14:12:41.555Z,28.10
2023-06-07T14:15:09.466Z,28.00
2023-06-07T14:17:36.355Z,27.90
2023-06-07T14:20:03.353Z,27.70
2023-06-07T14:22:30.208Z,27.60
2023-06-07T14:24:57.155Z,27.60
2023-06-07T14:27:23.986Z,27.50
2023-06-07T14:29:50.900Z,27.40
2023-06-07T14:32:17.700Z,27.40
2023-06-07T14:34:44.548Z,27.40
2023-06-07T14:37:11.412Z,27.30
2023-06-07T14:39:38.329Z,27.30
2023-06-07T14:42:05.294Z,27.30
2023-06-07T14:44:32.109Z,27.30
2023-06-07T14:46:59.095Z,27.20
2023-06-07T14:49:26.092Z,27.10
2023-06-07T14:51:52.981Z,27.10
2023-06-07T14:54:19.820Z,27.00
2023-06-07T14:56:46.774Z,27.00
2023-06-07T14:59:14.268Z,26.90
2023-06-07T15:01:42.127Z,26.90
2023-06-07T15:04:09.135Z,26.90
2023-06-07T15:06:36.916Z,26.80
2023-06-07T15:09:04.673Z,26.70
2023-06-07T15:11:31.564Z,26.60
2023-06-07T15:13:58.364Z,26.60
2023-06-07T15:16:25.399Z,26.60
2023-06-07T15:18:52.251Z,26.50
2023-06-07T15:21:21.355Z,26.50
2023-06-07T15:23:50.663Z,26.50
2023-06-07T15:26:18.044Z,26.50
2023-06-07T15:28:44.837Z,26.50
2023-06-07T15:31:11.781Z,26.50
2023-06-07T15:33:38.644Z,26.50
2023-06-07T15:36:05.662Z,26.50
2023-06-07T15:38:36.624Z,26.50
2023-06-07T15:41:03.420Z,26.40
2023-06-07T15:43:30.532Z,26.50
2023-06-07T15:45:57.560Z,26.40
2023-06-07T15:48:24.607Z,26.40
2023-06-07T15:50:51.978Z,26.40
2023-06-07T15:53:19.035Z,26.40
2023-06-07T15:55:46.928Z,26.30
2023-06-07T15:58:13.977Z,26.30
2023-06-07T16:00:41.051Z,26.20
2023-06-07T16:03:09.516Z,26.10
2023-06-07T16:05:36.782Z,26.10
2023-06-07T16:08:10.510Z,26.10
2023-06-07T16:10:39.650Z,26.00
2023-06-07T16:13:06.447Z,26.00
2023-06-07T16:15:35.028Z,25.90
2023-06-07T16:18:01.912Z,25.90
2023-06-07T16:20:29.015Z,25.90
2023-06-07T16:22:56.132Z,25.90
2023-06-07T16:25:23.005Z,25.80
2023-06-07T16:27:49.794Z,25.70
2023-06-07T16:30:17.056Z,25.70
2023-06-07T16:32:43.900Z,25.60
2023-06-07T16:35:10.898Z,25.60
2023-06-07T16:37:37.797Z,25.60
2023-06-07T16:40:05.687Z,25.60
2023-06-07T16:42:32.931Z,25.50
2023-06-07T16:45:00.408Z,25.50
2023-06-07T16:47:28.635Z,25.50
2023-06-07T16:49:55.728Z,25.50
2023-06-07T16:52:22.659Z,25.60
2023-06-07T16:54:49.549Z,25.60
2023-06-07T16:57:16.410Z,25.60
2023-06-07T16:59:43.269Z,25.60
2023-06-07T17:02:10.227Z,25.60
2023-06-07T17:04:38.542Z,25.60
2023-06-07T17:07:06.362Z,25.60
2023-06-07T17:09:33.220Z,25.60
2023-06-07T17:12:00.582Z,25.60
2023-06-07T17:14:27.438Z,25.50
2023-06-07T17:16:54.362Z,25.50
2023-06-07T17:19:21.177Z,25.50
2023-06-07T17:21:48.002Z,25.50
2023-06-07T17:24:15.455Z,25.50
2023-06-07T17:26:42.928Z,25.50
2023-06-07T17:29:24.408Z,25.50
2023-06-07T17:31:55.273Z,25.50
2023-06-07T17:34:22.129Z,25.50
2023-06-07T17:36:49.238Z,25.50
2023-06-07T17:39:16.921Z,25.60
2023-06-07T17:41:44.219Z,25.60
2023-06-07T17:44:11.487Z,25.50
2023-06-07T17:46:39.010Z,25.50
2023-06-07T17:49:06.048Z,25.40
2023-06-07T17:51:33.282Z,25.40
2023-06-07T17:54:03.041Z,25.40
2023-06-07T17:56:29.958Z,25.40
2023-06-07T17:58:59.537Z,25.40
2023-06-07T18:01:26.823Z,25.40
2023-06-07T18:03:55.097Z,25.30
2023-06-07T18:06:24.567Z,25.30
2023-06-07T18:08:51.837Z,25.20
2023-06-07T18:11:18.873Z,25.20
2023-06-07T18:13:49.026Z,25.10
2023-06-07T18:16:16.112Z,25.10
2023-06-07T18:18:42.922Z,25.10
2023-06-07T18:21:11.250Z,25.00
2023-06-07T18:23:38.372Z,25.00
2023-06-07T18:26:05.779Z,25.00
2023-06-07T18:28:33.228Z,24.90
2023-06-07T18:31:00.533Z,24.90
2023-06-07T18:33:28.709Z,24.80
2023-06-07T18:35:56.461Z,24.80
2023-06-07T18:38:24.858Z,24.70
2023-06-07T18:40:52.868Z,24.60
2023-06-07T18:43:20.704Z,24.50
2023-06-07T18:45:49.021Z,24.50
2023-06-07T18:48:18.066Z,24.40
2023-06-07T18:50:45.024Z,24.40
2023-06-07T18:53:14.524Z,24.30
2023-06-07T18:55:41.507Z,24.20
2023-06-07T18:58:11.083Z,24.20
2023-06-07T19:00:38.749Z,24.10
2023-06-07T19:03:05.870Z,24.00
2023-06-07T19:05:32.953Z,24.00
2023-06-07T19:08:00.284Z,23.90
2023-06-07T19:10:27.178Z,23.90
2023-06-07T19:12:53.979Z,23.80
2023-06-07T19:15:21.141Z,23.80
2023-06-07T19:17:48.123Z,23.70
2023-06-07T19:20:16.660Z,23.70
2023-06-07T19:22:43.712Z,23.70
2023-06-07T19:25:10.888Z,23.70
2023-06-07T19:27:37.870Z,23.60
2023-06-07T19:30:05.638Z,23.60
2023-06-07T19:32:32.562Z,23.60
2023-06-07T19:35:02.663Z,23.50
2023-06-07T19:37:30.094Z,23.40
2023-06-07T19:39:57.044Z,23.40
2023-06-07T19:42:24.349Z,23.30
2023-06-07T19:44:51.291Z,23.30
2023-06-07T19:47:19.270Z,23.30
2023-06-07T19:49:46.425Z,23.20
2023-06-07T19:52:13.499Z,23.20
2023-06-07T19:54:40.491Z,23.20
2023-06-07T19:57:07.738Z,23.20
2023-06-07T19:59:35.503Z,23.10
2023-06-07T20:02:05.294Z,23.10
2023-06-07T20:04:33.584Z,23.10
2023-06-07T20:07:05.402Z,23.10
2023-06-07T20:09:33.204Z,23.10
2023-06-07T20:12:00.037Z,23.10
2023-06-07T20:14:27.126Z,23.10
2023-06-07T20:16:54.462Z,23.10
2023-06-07T20:19:21.499Z,23.10
2023-06-07T20:21:48.517Z,23.10
2023-06-07T20:24:16.018Z,23.10
2023-06-07T20:26:48.151Z,23.10
2023-06-07T20:29:15.879Z,23.10
2023-06-07T20:31:44.255Z,23.10
2023-06-07T20:34:11.882Z,23.10
2023-06-07T20:36:39.138Z,23.10
2023-06-07T20:39:07.734Z,23.10
2023-06-07T20:41:34.986Z,23.10
2023-06-07T20:44:08.380Z,23.10
2023-06-07T20:46:36.949Z,23.00
2023-06-07T20:49:06.162Z,23.00
2023-06-07T20:51:33.369Z,23.00
2023-06-07T20:54:00.763Z,23.00
2023-06-07T20:56:27.862Z,22.90
2023-06-07T20:58:55.094Z,22.90
2023-06-07T21:01:22.320Z,22.90
2023-06-07T21:03:51.702Z,22.90
2023-06-07T21:06:19.483Z,22.90
2023-06-07T21:08:46.498Z,22.90
2023-06-07T21:11:13.352Z,22.80
2023-06-07T21:13:41.069Z,22.90
2023-06-07T21:16:07.980Z,22.70
2023-06-07T21:18:34.979Z,22.70
2023-06-07T21:21:01.951Z,22.70
2023-06-07T21:23:28.999Z,22.70
2023-06-07T21:25:56.150Z,22.70
2023-06-07T21:28:23.020Z,22.60
2023-06-07T21:30:50.191Z,22.60
2023-06-07T21:33:20.244Z,22.60
2023-06-07T21:35:50.272Z,22.60
2023-06-07T21:38:17.154Z,22.60
2023-06-07T21:40:44.197Z,22.60
2023-06-07T21:43:11.199Z,22.60
2023-06-07T21:45:38.294Z,22.50
2023-06-07T21:48:05.420Z,22.50
2023-06-07T21:50:32.395Z,22.60
2023-06-07T21:52:59.389Z,22.60
2023-06-07T21:55:26.391Z,22.70
2023-06-07T21:57:54.472Z,22.70
2023-06-07T22:00:22.513Z,22.70
2023-06-07T22:02:49.444Z,22.70
2023-06-07T22:05:18.777Z,22.70
2023-06-07T22:07:45.836Z,22.80
2023-06-07T22:10:12.691Z,22.80
2023-06-07T22:12:41.993Z,22.80
2023-06-07T22:15:09.999Z,22.80
2023-06-07T22:17:38.136Z,22.70
2023-06-07T22:20:07.331Z,22.70
2023-06-07T22:22:34.787Z,22.70
2023-06-07T22:25:01.744Z,22.70
2023-06-07T22:27:30.029Z,22.60
2023-06-07T22:29:58.844Z,22.60
2023-06-07T22:32:30.218Z,22.50
2023-06-07T22:35:04.801Z,22.50
2023-06-07T22:37:35.867Z,22.50
2023-06-07T22:40:07.393Z,22.40
2023-06-07T22:42:34.715Z,22.40
2023-06-07T22:45:01.929Z,22.30
2023-06-07T22:47:34.137Z,22.30
2023-06-07T22:50:03.039Z,22.30
2023-06-07T22:52:34.030Z,22.30
2023-06-07T22:55:01.870Z,22.30
2023-06-07T22:57:30.736Z,22.20
2023-06-07T22:59:58.831Z,22.30
2023-06-07T23:02:27.172Z,22.20
2023-06-07T23:04:54.101Z,22.20
2023-06-07T23:07:20.975Z,22.20
2023-06-07T23:09:47.744Z,22.20
2023-06-07T23:12:14.574Z,22.20
2023-06-07T23:14:41.385Z,22.20
2023-06-07T23:17:08.156Z,22.10
2023-06-07T23:19:34.864Z,22.10
2023-06-07T23:22:01.559Z,22.00
2023-06-07T23:24:29.506Z,22.10
2023-06-07T23:26:59.592Z,22.00
2023-06-07T23:29:29.317Z,22.00
2023-06-07T23:31:56.916Z,22.00
2023-06-07T23:34:25.505Z,21.90
2023-06-07T23:36:52.665Z,21.90
2023-06-07T23:39:19.475Z,21.90
2023-06-07T23:41:48.148Z,21.90
2023-06-07T23:44:28.117Z,21.80
2023-06-07T23:46:55.981Z,21.80
2023-06-07T23:49:32.387Z,21.80
2023-06-07T23:51:59.345Z,21.70
2023-06-07T23:54:26.089Z,21.70
2023-06-07T23:56:52.736Z,21.60
2023-06-07T23:59:19.475Z,21.60
